sensor_id;sensor_type;location;lat;lon;timestamp;P1;durP1;ratioP1;P2;durP2;ratioP2
2784;SDS011;57944;48.722;9.316;2023-02-28T00:00:30;4.90;;;2.53;;
2784;SDS011;57944;48.722;9.316;2023-02-28T00:03:02;5.20;;;2.57;;
2784;SDS011;57944;48.722;9.316;2023-02-28T00:05:33;7.70;;;3.10;;
2784;SDS011;57944;48.722;9.316;2023-02-28T00:08:05;7.53;;;3.40;;
2784;SDS011;57944;48.722;9.316;2023-02-28T00:10:36;6.23;;;2.87;;
2784;SDS011;57944;48.722;9.316;2023-02-28T00:13:06;9.83;;;3.80;;
2784;SDS011;57944;48.722;9.316;2023-02-28T00:15:37;8.30;;;3.60;;
2784;SDS011;57944;48.722;9.316;2023-02-28T00:18:07;6.70;;;3.13;;
2784;SDS011;57944;48.722;9.316;2023-02-28T00:20:38;6.57;;;2.87;;
2784;SDS011;57944;48.722;9.316;2023-02-28T00:23:11;4.00;;;2.70;;
2784;SDS011;57944;48.722;9.316;2023-02-28T00:25:41;4.67;;;2.50;;
2784;SDS011;57944;48.722;9.316;2023-02-28T00:28:11;5.90;;;2.43;;
2784;SDS011;57944;48.722;9.316;2023-02-28T00:30:41;4.40;;;2.47;;
2784;SDS011;57944;48.722;9.316;2023-02-28T00:33:11;6.23;;;2.87;;
2784;SDS011;57944;48.722;9.316;2023-02-28T00:35:41;5.43;;;2.97;;
2784;SDS011;57944;48.722;9.316;2023-02-28T00:38:15;3.30;;;2.00;;
2784;SDS011;57944;48.722;9.316;2023-02-28T00:40:46;8.90;;;3.23;;
2784;SDS011;57944;48.722;9.316;2023-02-28T00:43:16;4.87;;;2.87;;
2784;SDS011;57944;48.722;9.316;2023-02-28T00:45:45;9.17;;;2.70;;
2784;SDS011;57944;48.722;9.316;2023-02-28T00:48:15;5.00;;;2.90;;
2784;SDS011;57944;48.722;9.316;2023-02-28T00:50:47;4.53;;;3.13;;
2784;SDS011;57944;48.722;9.316;2023-02-28T00:53:21;5.53;;;2.30;;
2784;SDS011;57944;48.722;9.316;2023-02-28T00:55:51;5.33;;;2.90;;
2784;SDS011;57944;48.722;9.316;2023-02-28T00:58:21;4.83;;;2.70;;
2784;SDS011;57944;48.722;9.316;2023-02-28T01:00:51;5.57;;;2.87;;
2784;SDS011;57944;48.722;9.316;2023-02-28T01:03:22;4.93;;;2.93;;
2784;SDS011;57944;48.722;9.316;2023-02-28T01:05:52;6.63;;;3.80;;
2784;SDS011;57944;48.722;9.316;2023-02-28T01:08:25;5.00;;;2.70;;
2784;SDS011;57944;48.722;9.316;2023-02-28T01:10:55;5.20;;;2.83;;
2784;SDS011;57944;48.722;9.316;2023-02-28T01:13:26;5.23;;;2.73;;
2784;SDS011;57944;48.722;9.316;2023-02-28T01:15:57;9.97;;;3.20;;
2784;SDS011;57944;48.722;9.316;2023-02-28T01:18:27;5.17;;;2.83;;
2784;SDS011;57944;48.722;9.316;2023-02-28T01:20:57;5.40;;;2.60;;
2784;SDS011;57944;48.722;9.316;2023-02-28T01:23:35;5.03;;;2.47;;
2784;SDS011;57944;48.722;9.316;2023-02-28T01:26:05;5.90;;;2.73;;
2784;SDS011;57944;48.722;9.316;2023-02-28T01:28:38;4.20;;;2.70;;
2784;SDS011;57944;48.722;9.316;2023-02-28T01:31:09;4.20;;;2.80;;
2784;SDS011;57944;48.722;9.316;2023-02-28T01:33:40;4.40;;;2.27;;
2784;SDS011;57944;48.722;9.316;2023-02-28T01:36:11;8.17;;;3.13;;
2784;SDS011;57944;48.722;9.316;2023-02-28T01:38:46;4.70;;;3.00;;
2784;SDS011;57944;48.722;9.316;2023-02-28T01:41:20;7.10;;;3.00;;
2784;SDS011;57944;48.722;9.316;2023-02-28T01:43:58;6.03;;;3.27;;
2784;SDS011;57944;48.722;9.316;2023-02-28T01:46:32;5.23;;;3.23;;
2784;SDS011;57944;48.722;9.316;2023-02-28T01:49:06;5.23;;;3.20;;
2784;SDS011;57944;48.722;9.316;2023-02-28T01:51:43;6.30;;;3.50;;
2784;SDS011;57944;48.722;9.316;2023-02-28T01:54:24;5.13;;;2.97;;
2784;SDS011;57944;48.722;9.316;2023-02-28T01:57:00;3.80;;;2.80;;
2784;SDS011;57944;48.722;9.316;2023-02-28T01:59:35;8.73;;;3.20;;
2784;SDS011;57944;48.722;9.316;2023-02-28T02:02:16;7.83;;;3.83;;
2784;SDS011;57944;48.722;9.316;2023-02-28T02:04:50;3.93;;;3.23;;
2784;SDS011;57944;48.722;9.316;2023-02-28T02:07:29;15.47;;;4.10;;
2784;SDS011;57944;48.722;9.316;2023-02-28T02:10:06;5.93;;;3.40;;
2784;SDS011;57944;48.722;9.316;2023-02-28T02:12:48;8.23;;;2.67;;
2784;SDS011;57944;48.722;9.316;2023-02-28T02:15:40;6.03;;;3.80;;
2784;SDS011;57944;48.722;9.316;2023-02-28T02:18:19;5.80;;;3.37;;
2784;SDS011;57944;48.722;9.316;2023-02-28T02:24:34;9.93;;;3.57;;
2784;SDS011;57944;48.722;9.316;2023-02-28T02:30:58;5.10;;;2.93;;
2784;SDS011;57944;48.722;9.316;2023-02-28T02:34:11;5.17;;;3.30;;
2784;SDS011;57944;48.722;9.316;2023-02-28T02:36:59;8.10;;;3.37;;
2784;SDS011;57944;48.722;9.316;2023-02-28T02:39:39;8.83;;;3.77;;
2784;SDS011;57944;48.722;9.316;2023-02-28T02:42:20;4.00;;;2.47;;
2784;SDS011;57944;48.722;9.316;2023-02-28T02:44:58;8.13;;;4.20;;
2784;SDS011;57944;48.722;9.316;2023-02-28T02:47:35;7.63;;;4.37;;
2784;SDS011;57944;48.722;9.316;2023-02-28T02:50:11;5.20;;;2.97;;
2784;SDS011;57944;48.722;9.316;2023-02-28T02:52:49;10.10;;;3.47;;
2784;SDS011;57944;48.722;9.316;2023-02-28T02:55:28;6.70;;;4.17;;
2784;SDS011;57944;48.722;9.316;2023-02-28T02:58:04;7.37;;;3.83;;
2784;SDS011;57944;48.722;9.316;2023-02-28T03:00:41;5.10;;;3.60;;
2784;SDS011;57944;48.722;9.316;2023-02-28T03:03:16;8.67;;;3.70;;
2784;SDS011;57944;48.722;9.316;2023-02-28T03:05:58;6.07;;;4.10;;
2784;SDS011;57944;48.722;9.316;2023-02-28T03:08:33;6.90;;;3.20;;
2784;SDS011;57944;48.722;9.316;2023-02-28T03:11:09;8.07;;;4.40;;
2784;SDS011;57944;48.722;9.316;2023-02-28T03:13:49;5.70;;;3.00;;
2784;SDS011;57944;48.722;9.316;2023-02-28T03:16:33;6.43;;;3.17;;
2784;SDS011;57944;48.722;9.316;2023-02-28T03:19:26;5.30;;;3.30;;
2784;SDS011;57944;48.722;9.316;2023-02-28T03:22:26;7.83;;;3.37;;
2784;SDS011;57944;48.722;9.316;2023-02-28T03:25:19;7.77;;;3.83;;
2784;SDS011;57944;48.722;9.316;2023-02-28T03:28:02;10.33;;;3.53;;
2784;SDS011;57944;48.722;9.316;2023-02-28T03:30:45;6.70;;;4.30;;
2784;SDS011;57944;48.722;9.316;2023-02-28T03:33:21;5.17;;;4.03;;
2784;SDS011;57944;48.722;9.316;2023-02-28T03:35:59;7.43;;;4.17;;
2784;SDS011;57944;48.722;9.316;2023-02-28T03:38:36;5.87;;;3.13;;
2784;SDS011;57944;48.722;9.316;2023-02-28T03:41:13;9.67;;;3.80;;
2784;SDS011;57944;48.722;9.316;2023-02-28T03:43:49;6.20;;;4.10;;
2784;SDS011;57944;48.722;9.316;2023-02-28T03:46:25;6.07;;;3.67;;
2784;SDS011;57944;48.722;9.316;2023-02-28T03:49:02;4.83;;;2.90;;
2784;SDS011;57944;48.722;9.316;2023-02-28T03:51:40;7.83;;;3.40;;
2784;SDS011;57944;48.722;9.316;2023-02-28T03:54:18;7.10;;;3.97;;
2784;SDS011;57944;48.722;9.316;2023-02-28T03:56:54;7.43;;;3.77;;
2784;SDS011;57944;48.722;9.316;2023-02-28T03:59:32;5.30;;;4.50;;
2784;SDS011;57944;48.722;9.316;2023-02-28T04:02:09;6.67;;;4.07;;
2784;SDS011;57944;48.722;9.316;2023-02-28T04:04:40;6.97;;;3.90;;
2784;SDS011;57944;48.722;9.316;2023-02-28T04:07:11;4.87;;;4.27;;
2784;SDS011;57944;48.722;9.316;2023-02-28T04:09:44;6.37;;;4.37;;
2784;SDS011;57944;48.722;9.316;2023-02-28T04:12:14;14.80;;;3.83;;
2784;SDS011;57944;48.722;9.316;2023-02-28T04:14:44;6.10;;;3.63;;
2784;SDS011;57944;48.722;9.316;2023-02-28T04:17:14;6.30;;;4.43;;
2784;SDS011;57944;48.722;9.316;2023-02-28T04:19:45;6.57;;;4.10;;
2784;SDS011;57944;48.722;9.316;2023-02-28T04:22:15;6.73;;;4.10;;
2784;SDS011;57944;48.722;9.316;2023-02-28T04:24:47;7.23;;;4.60;;
2784;SDS011;57944;48.722;9.316;2023-02-28T04:27:17;7.40;;;4.50;;
2784;SDS011;57944;48.722;9.316;2023-02-28T04:29:48;7.80;;;4.07;;
2784;SDS011;57944;48.722;9.316;2023-02-28T04:32:18;9.27;;;4.97;;
2784;SDS011;57944;48.722;9.316;2023-02-28T04:34:48;6.23;;;4.70;;
2784;SDS011;57944;48.722;9.316;2023-02-28T04:37:18;7.70;;;4.40;;
2784;SDS011;57944;48.722;9.316;2023-02-28T04:39:56;8.37;;;4.10;;
2784;SDS011;57944;48.722;9.316;2023-02-28T04:42:26;7.77;;;4.77;;
2784;SDS011;57944;48.722;9.316;2023-02-28T04:45:02;10.07;;;4.60;;
2784;SDS011;57944;48.722;9.316;2023-02-28T04:47:33;7.83;;;4.43;;
2784;SDS011;57944;48.722;9.316;2023-02-28T04:50:03;8.63;;;4.70;;
2784;SDS011;57944;48.722;9.316;2023-02-28T04:52:35;9.13;;;4.33;;
2784;SDS011;57944;48.722;9.316;2023-02-28T04:55:08;8.40;;;5.50;;
2784;SDS011;57944;48.722;9.316;2023-02-28T04:57:39;6.50;;;4.23;;
2784;SDS011;57944;48.722;9.316;2023-02-28T05:00:10;9.10;;;4.40;;
2784;SDS011;57944;48.722;9.316;2023-02-28T05:02:43;8.37;;;5.23;;
2784;SDS011;57944;48.722;9.316;2023-02-28T05:05:13;5.70;;;4.10;;
2784;SDS011;57944;48.722;9.316;2023-02-28T05:07:44;9.50;;;5.60;;
2784;SDS011;57944;48.722;9.316;2023-02-28T05:10:17;6.43;;;4.73;;
2784;SDS011;57944;48.722;9.316;2023-02-28T05:12:47;6.73;;;4.30;;
2784;SDS011;57944;48.722;9.316;2023-02-28T05:15:17;8.87;;;4.97;;
2784;SDS011;57944;48.722;9.316;2023-02-28T05:17:47;5.53;;;3.70;;
2784;SDS011;57944;48.722;9.316;2023-02-28T05:20:17;10.10;;;5.70;;
2784;SDS011;57944;48.722;9.316;2023-02-28T05:22:49;8.70;;;4.90;;
2784;SDS011;57944;48.722;9.316;2023-02-28T05:25:21;10.10;;;5.67;;
2784;SDS011;57944;48.722;9.316;2023-02-28T05:27:51;9.17;;;5.37;;
2784;SDS011;57944;48.722;9.316;2023-02-28T05:30:21;6.60;;;4.50;;
2784;SDS011;57944;48.722;9.316;2023-02-28T05:32:51;7.33;;;4.77;;
2784;SDS011;57944;48.722;9.316;2023-02-28T05:35:21;8.60;;;4.60;;
2784;SDS011;57944;48.722;9.316;2023-02-28T05:37:52;8.90;;;4.80;;
2784;SDS011;57944;48.722;9.316;2023-02-28T05:40:25;10.33;;;6.37;;
2784;SDS011;57944;48.722;9.316;2023-02-28T05:42:55;8.73;;;4.30;;
2784;SDS011;57944;48.722;9.316;2023-02-28T05:45:25;7.90;;;5.90;;
2784;SDS011;57944;48.722;9.316;2023-02-28T05:47:55;7.10;;;5.30;;
2784;SDS011;57944;48.722;9.316;2023-02-28T05:50:25;7.63;;;5.43;;
2784;SDS011;57944;48.722;9.316;2023-02-28T05:52:55;9.00;;;5.13;;
2784;SDS011;57944;48.722;9.316;2023-02-28T05:55:28;10.30;;;5.23;;
2784;SDS011;57944;48.722;9.316;2023-02-28T05:57:58;13.60;;;5.80;;
2784;SDS011;57944;48.722;9.316;2023-02-28T06:00:28;9.70;;;6.37;;
2784;SDS011;57944;48.722;9.316;2023-02-28T06:02:58;7.50;;;5.30;;
2784;SDS011;57944;48.722;9.316;2023-02-28T06:05:28;11.93;;;5.90;;
2784;SDS011;57944;48.722;9.316;2023-02-28T06:07:59;9.80;;;5.73;;
2784;SDS011;57944;48.722;9.316;2023-02-28T06:10:32;13.20;;;7.53;;
2784;SDS011;57944;48.722;9.316;2023-02-28T06:13:02;13.37;;;7.40;;
2784;SDS011;57944;48.722;9.316;2023-02-28T06:15:33;10.87;;;5.63;;
2784;SDS011;57944;48.722;9.316;2023-02-28T06:18:04;10.57;;;6.63;;
2784;SDS011;57944;48.722;9.316;2023-02-28T06:20:34;9.00;;;5.67;;
2784;SDS011;57944;48.722;9.316;2023-02-28T06:23:04;13.63;;;6.90;;
2784;SDS011;57944;48.722;9.316;2023-02-28T06:25:37;8.70;;;5.13;;
2784;SDS011;57944;48.722;9.316;2023-02-28T06:28:07;10.67;;;6.30;;
2784;SDS011;57944;48.722;9.316;2023-02-28T06:30:37;6.97;;;5.40;;
2784;SDS011;57944;48.722;9.316;2023-02-28T06:33:08;10.47;;;6.23;;
2784;SDS011;57944;48.722;9.316;2023-02-28T06:35:38;12.27;;;5.50;;
2784;SDS011;57944;48.722;9.316;2023-02-28T06:38:08;13.20;;;6.97;;
2784;SDS011;57944;48.722;9.316;2023-02-28T06:40:41;9.20;;;5.97;;
2784;SDS011;57944;48.722;9.316;2023-02-28T06:43:11;10.60;;;6.87;;
2784;SDS011;57944;48.722;9.316;2023-02-28T06:45:41;13.00;;;6.67;;
2784;SDS011;57944;48.722;9.316;2023-02-28T06:48:13;11.80;;;5.40;;
2784;SDS011;57944;48.722;9.316;2023-02-28T06:50:44;7.77;;;6.00;;
2784;SDS011;57944;48.722;9.316;2023-02-28T06:53:14;11.43;;;6.30;;
2784;SDS011;57944;48.722;9.316;2023-02-28T06:55:46;8.37;;;5.20;;
2784;SDS011;57944;48.722;9.316;2023-02-28T06:58:16;12.07;;;5.57;;
2784;SDS011;57944;48.722;9.316;2023-02-28T07:00:49;8.90;;;5.70;;
2784;SDS011;57944;48.722;9.316;2023-02-28T07:03:21;10.10;;;5.90;;
2784;SDS011;57944;48.722;9.316;2023-02-28T07:05:51;12.80;;;6.60;;
2784;SDS011;57944;48.722;9.316;2023-02-28T07:08:22;11.17;;;6.27;;
2784;SDS011;57944;48.722;9.316;2023-02-28T07:10:55;12.03;;;6.80;;
2784;SDS011;57944;48.722;9.316;2023-02-28T07:13:26;10.80;;;6.47;;
2784;SDS011;57944;48.722;9.316;2023-02-28T07:15:57;10.13;;;7.33;;
2784;SDS011;57944;48.722;9.316;2023-02-28T07:18:30;9.07;;;6.07;;
2784;SDS011;57944;48.722;9.316;2023-02-28T07:21:01;11.20;;;6.60;;
2784;SDS011;57944;48.722;9.316;2023-02-28T07:23:34;14.50;;;7.30;;
2784;SDS011;57944;48.722;9.316;2023-02-28T07:26:10;10.27;;;6.20;;
2784;SDS011;57944;48.722;9.316;2023-02-28T07:28:43;8.83;;;5.77;;
2784;SDS011;57944;48.722;9.316;2023-02-28T07:31:17;15.93;;;8.30;;
2784;SDS011;57944;48.722;9.316;2023-02-28T07:33:48;10.50;;;5.93;;
2784;SDS011;57944;48.722;9.316;2023-02-28T07:36:18;9.90;;;6.80;;
2784;SDS011;57944;48.722;9.316;2023-02-28T07:38:48;10.07;;;6.20;;
2784;SDS011;57944;48.722;9.316;2023-02-28T07:41:22;10.33;;;6.63;;
2784;SDS011;57944;48.722;9.316;2023-02-28T07:43:54;9.20;;;6.47;;
2784;SDS011;57944;48.722;9.316;2023-02-28T07:46:26;13.13;;;7.00;;
2784;SDS011;57944;48.722;9.316;2023-02-28T07:49:02;11.87;;;7.27;;
2784;SDS011;57944;48.722;9.316;2023-02-28T07:51:34;8.23;;;5.60;;
2784;SDS011;57944;48.722;9.316;2023-02-28T07:54:04;14.30;;;8.07;;
2784;SDS011;57944;48.722;9.316;2023-02-28T07:56:37;11.73;;;8.10;;
2784;SDS011;57944;48.722;9.316;2023-02-28T07:59:07;12.60;;;6.47;;
2784;SDS011;57944;48.722;9.316;2023-02-28T08:01:37;11.20;;;6.70;;
2784;SDS011;57944;48.722;9.316;2023-02-28T08:04:07;11.60;;;6.90;;
2784;SDS011;57944;48.722;9.316;2023-02-28T08:06:37;12.83;;;7.13;;
2784;SDS011;57944;48.722;9.316;2023-02-28T08:09:07;14.03;;;7.80;;
2784;SDS011;57944;48.722;9.316;2023-02-28T08:11:40;15.67;;;8.47;;
2784;SDS011;57944;48.722;9.316;2023-02-28T08:14:10;11.27;;;6.93;;
2784;SDS011;57944;48.722;9.316;2023-02-28T08:16:40;17.53;;;7.10;;
2784;SDS011;57944;48.722;9.316;2023-02-28T08:19:10;12.17;;;8.70;;
2784;SDS011;57944;48.722;9.316;2023-02-28T08:21:40;11.20;;;6.10;;
2784;SDS011;57944;48.722;9.316;2023-02-28T08:24:10;13.00;;;7.43;;
2784;SDS011;57944;48.722;9.316;2023-02-28T08:26:43;11.83;;;7.10;;
2784;SDS011;57944;48.722;9.316;2023-02-28T08:29:14;13.43;;;6.40;;
2784;SDS011;57944;48.722;9.316;2023-02-28T08:31:44;9.80;;;6.20;;
2784;SDS011;57944;48.722;9.316;2023-02-28T08:34:15;11.30;;;6.03;;
2784;SDS011;57944;48.722;9.316;2023-02-28T08:36:45;11.93;;;7.50;;
2784;SDS011;57944;48.722;9.316;2023-02-28T08:39:15;11.67;;;7.57;;
2784;SDS011;57944;48.722;9.316;2023-02-28T08:41:48;11.07;;;6.47;;
2784;SDS011;57944;48.722;9.316;2023-02-28T08:44:32;13.10;;;8.00;;
2784;SDS011;57944;48.722;9.316;2023-02-28T08:47:02;16.43;;;8.67;;
2784;SDS011;57944;48.722;9.316;2023-02-28T08:49:33;10.33;;;6.43;;
2784;SDS011;57944;48.722;9.316;2023-02-28T08:52:03;7.30;;;5.20;;
2784;SDS011;57944;48.722;9.316;2023-02-28T08:54:34;12.40;;;7.20;;
2784;SDS011;57944;48.722;9.316;2023-02-28T08:57:07;14.60;;;7.67;;
2784;SDS011;57944;48.722;9.316;2023-02-28T08:59:37;11.50;;;6.87;;
2784;SDS011;57944;48.722;9.316;2023-02-28T09:02:08;10.13;;;6.70;;
2784;SDS011;57944;48.722;9.316;2023-02-28T09:04:41;12.83;;;7.30;;
2784;SDS011;57944;48.722;9.316;2023-02-28T09:07:11;17.83;;;8.83;;
2784;SDS011;57944;48.722;9.316;2023-02-28T09:09:42;15.83;;;7.27;;
2784;SDS011;57944;48.722;9.316;2023-02-28T09:12:24;12.60;;;7.70;;
2784;SDS011;57944;48.722;9.316;2023-02-28T09:14:56;11.37;;;7.60;;
2784;SDS011;57944;48.722;9.316;2023-02-28T09:17:26;13.63;;;8.10;;
2784;SDS011;57944;48.722;9.316;2023-02-28T09:19:57;11.53;;;7.30;;
2784;SDS011;57944;48.722;9.316;2023-02-28T09:22:27;11.20;;;6.60;;
2784;SDS011;57944;48.722;9.316;2023-02-28T09:24:57;13.57;;;7.83;;
2784;SDS011;57944;48.722;9.316;2023-02-28T09:27:30;13.37;;;7.67;;
2784;SDS011;57944;48.722;9.316;2023-02-28T09:30:00;9.37;;;6.30;;
2784;SDS011;57944;48.722;9.316;2023-02-28T09:32:29;10.77;;;5.93;;
2784;SDS011;57944;48.722;9.316;2023-02-28T09:35:00;17.67;;;8.53;;
2784;SDS011;57944;48.722;9.316;2023-02-28T09:37:30;16.23;;;9.10;;
2784;SDS011;57944;48.722;9.316;2023-02-28T09:40:00;14.33;;;7.13;;
2784;SDS011;57944;48.722;9.316;2023-02-28T09:42:33;14.03;;;8.73;;
2784;SDS011;57944;48.722;9.316;2023-02-28T09:45:05;10.50;;;6.77;;
2784;SDS011;57944;48.722;9.316;2023-02-28T09:47:47;15.67;;;8.00;;
2784;SDS011;57944;48.722;9.316;2023-02-28T09:50:23;12.37;;;8.33;;
2784;SDS011;57944;48.722;9.316;2023-02-28T09:53:03;12.30;;;7.83;;
2784;SDS011;57944;48.722;9.316;2023-02-28T09:55:48;9.60;;;7.30;;
2784;SDS011;57944;48.722;9.316;2023-02-28T09:58:28;16.10;;;8.57;;
2784;SDS011;57944;48.722;9.316;2023-02-28T10:01:07;14.97;;;6.90;;
2784;SDS011;57944;48.722;9.316;2023-02-28T10:03:50;11.97;;;8.00;;
2784;SDS011;57944;48.722;9.316;2023-02-28T10:06:28;12.57;;;6.57;;
2784;SDS011;57944;48.722;9.316;2023-02-28T10:09:05;13.00;;;7.30;;
2784;SDS011;57944;48.722;9.316;2023-02-28T10:11:42;10.33;;;5.80;;
2784;SDS011;57944;48.722;9.316;2023-02-28T10:14:18;8.70;;;6.07;;
2784;SDS011;57944;48.722;9.316;2023-02-28T10:16:52;14.40;;;11.37;;
2784;SDS011;57944;48.722;9.316;2023-02-28T10:19:27;14.70;;;7.27;;
2784;SDS011;57944;48.722;9.316;2023-02-28T10:22:05;9.17;;;7.33;;
2784;SDS011;57944;48.722;9.316;2023-02-28T10:24:43;20.73;;;9.40;;
2784;SDS011;57944;48.722;9.316;2023-02-28T10:27:16;11.70;;;7.80;;
2784;SDS011;57944;48.722;9.316;2023-02-28T10:29:53;14.83;;;8.10;;
2784;SDS011;57944;48.722;9.316;2023-02-28T10:32:27;12.77;;;6.90;;
2784;SDS011;57944;48.722;9.316;2023-02-28T10:35:06;12.70;;;8.00;;
2784;SDS011;57944;48.722;9.316;2023-02-28T10:37:46;9.17;;;7.63;;
2784;SDS011;57944;48.722;9.316;2023-02-28T10:40:27;15.40;;;7.90;;
2784;SDS011;57944;48.722;9.316;2023-02-28T10:43:03;10.40;;;7.20;;
2784;SDS011;57944;48.722;9.316;2023-02-28T10:45:59;10.70;;;8.40;;
2784;SDS011;57944;48.722;9.316;2023-02-28T10:48:36;12.80;;;7.87;;
2784;SDS011;57944;48.722;9.316;2023-02-28T10:51:10;15.17;;;8.77;;
2784;SDS011;57944;48.722;9.316;2023-02-28T10:53:45;15.47;;;8.20;;
2784;SDS011;57944;48.722;9.316;2023-02-28T10:56:27;11.50;;;8.73;;
2784;SDS011;57944;48.722;9.316;2023-02-28T10:58:59;10.67;;;8.80;;
2784;SDS011;57944;48.722;9.316;2023-02-28T11:01:39;16.53;;;8.27;;
2784;SDS011;57944;48.722;9.316;2023-02-28T11:04:19;12.30;;;7.27;;
2784;SDS011;57944;48.722;9.316;2023-02-28T11:07:05;15.33;;;8.30;;
2784;SDS011;57944;48.722;9.316;2023-02-28T11:09:51;10.93;;;8.50;;
2784;SDS011;57944;48.722;9.316;2023-02-28T11:12:25;12.90;;;7.43;;
2784;SDS011;57944;48.722;9.316;2023-02-28T11:15:07;13.00;;;8.20;;
2784;SDS011;57944;48.722;9.316;2023-02-28T11:17:56;13.40;;;8.13;;
2784;SDS011;57944;48.722;9.316;2023-02-28T11:20:31;14.80;;;10.10;;
2784;SDS011;57944;48.722;9.316;2023-02-28T11:23:03;14.40;;;9.57;;
2784;SDS011;57944;48.722;9.316;2023-02-28T11:25:39;12.37;;;8.47;;
2784;SDS011;57944;48.722;9.316;2023-02-28T11:28:23;14.70;;;9.43;;
2784;SDS011;57944;48.722;9.316;2023-02-28T11:31:01;16.10;;;9.50;;
2784;SDS011;57944;48.722;9.316;2023-02-28T11:33:49;12.60;;;9.47;;
2784;SDS011;57944;48.722;9.316;2023-02-28T11:36:22;13.27;;;8.03;;
2784;SDS011;57944;48.722;9.316;2023-02-28T11:38:56;12.93;;;9.43;;
2784;SDS011;57944;48.722;9.316;2023-02-28T11:41:33;13.03;;;8.87;;
2784;SDS011;57944;48.722;9.316;2023-02-28T11:44:41;10.47;;;7.67;;
2784;SDS011;57944;48.722;9.316;2023-02-28T11:47:30;16.00;;;10.20;;
2784;SDS011;57944;48.722;9.316;2023-02-28T11:50:15;14.17;;;9.07;;
2784;SDS011;57944;48.722;9.316;2023-02-28T11:52:56;15.00;;;7.80;;
2784;SDS011;57944;48.722;9.316;2023-02-28T11:55:31;11.23;;;8.50;;
2784;SDS011;57944;48.722;9.316;2023-02-28T11:58:14;11.10;;;8.33;;
2784;SDS011;57944;48.722;9.316;2023-02-28T12:01:05;16.23;;;9.83;;
2784;SDS011;57944;48.722;9.316;2023-02-28T12:03:55;14.03;;;8.50;;
2784;SDS011;57944;48.722;9.316;2023-02-28T12:06:43;12.20;;;7.70;;
2784;SDS011;57944;48.722;9.316;2023-02-28T12:09:32;17.03;;;8.97;;
2784;SDS011;57944;48.722;9.316;2023-02-28T12:12:19;12.30;;;7.50;;
2784;SDS011;57944;48.722;9.316;2023-02-28T12:15:16;16.13;;;8.07;;
2784;SDS011;57944;48.722;9.316;2023-02-28T12:18:03;11.33;;;7.93;;
2784;SDS011;57944;48.722;9.316;2023-02-28T12:20:53;16.97;;;8.40;;
2784;SDS011;57944;48.722;9.316;2023-02-28T12:23:52;12.53;;;7.57;;
2784;SDS011;57944;48.722;9.316;2023-02-28T12:26:50;15.67;;;8.57;;
2784;SDS011;57944;48.722;9.316;2023-02-28T12:29:24;16.13;;;9.70;;
2784;SDS011;57944;48.722;9.316;2023-02-28T12:32:02;11.70;;;8.83;;
2784;SDS011;57944;48.722;9.316;2023-02-28T12:34:41;14.50;;;7.63;;
2784;SDS011;57944;48.722;9.316;2023-02-28T12:37:17;14.17;;;8.37;;
2784;SDS011;57944;48.722;9.316;2023-02-28T12:40:00;13.77;;;8.40;;
2784;SDS011;57944;48.722;9.316;2023-02-28T12:42:36;15.80;;;8.50;;
2784;SDS011;57944;48.722;9.316;2023-02-28T12:45:13;12.00;;;9.10;;
2784;SDS011;57944;48.722;9.316;2023-02-28T12:47:50;13.70;;;8.90;;
2784;SDS011;57944;48.722;9.316;2023-02-28T12:50:26;12.60;;;8.60;;
2784;SDS011;57944;48.722;9.316;2023-02-28T12:52:59;15.30;;;10.23;;
2784;SDS011;57944;48.722;9.316;2023-02-28T12:55:38;16.30;;;7.83;;
2784;SDS011;57944;48.722;9.316;2023-02-28T12:58:16;11.50;;;8.27;;
2784;SDS011;57944;48.722;9.316;2023-02-28T13:01:12;16.47;;;8.90;;
2784;SDS011;57944;48.722;9.316;2023-02-28T13:04:24;14.50;;;8.97;;
2784;SDS011;57944;48.722;9.316;2023-02-28T13:07:29;15.30;;;8.80;;
2784;SDS011;57944;48.722;9.316;2023-02-28T13:10:48;11.10;;;7.13;;
2784;SDS011;57944;48.722;9.316;2023-02-28T13:13:22;17.20;;;8.20;;
2784;SDS011;57944;48.722;9.316;2023-02-28T13:15:59;13.60;;;9.27;;
2784;SDS011;57944;48.722;9.316;2023-02-28T13:18:36;12.50;;;8.40;;
2784;SDS011;57944;48.722;9.316;2023-02-28T13:21:09;12.83;;;8.10;;
2784;SDS011;57944;48.722;9.316;2023-02-28T13:23:58;12.53;;;8.83;;
2784;SDS011;57944;48.722;9.316;2023-02-28T13:30:02;13.57;;;8.87;;
2784;SDS011;57944;48.722;9.316;2023-02-28T13:33:23;14.57;;;8.10;;
2784;SDS011;57944;48.722;9.316;2023-02-28T13:36:05;14.27;;;8.37;;
2784;SDS011;57944;48.722;9.316;2023-02-28T13:38:40;17.87;;;8.43;;
2784;SDS011;57944;48.722;9.316;2023-02-28T13:44:18;15.47;;;9.90;;
2784;SDS011;57944;48.722;9.316;2023-02-28T13:53:21;16.27;;;8.87;;
2784;SDS011;57944;48.722;9.316;2023-02-28T13:56:20;12.80;;;8.07;;
2784;SDS011;57944;48.722;9.316;2023-02-28T13:59:06;13.30;;;9.23;;
2784;SDS011;57944;48.722;9.316;2023-02-28T14:01:56;13.63;;;8.07;;
2784;SDS011;57944;48.722;9.316;2023-02-28T14:05:04;17.93;;;9.47;;
2784;SDS011;57944;48.722;9.316;2023-02-28T14:08:04;9.17;;;6.33;;
2784;SDS011;57944;48.722;9.316;2023-02-28T14:10:42;14.63;;;8.60;;
2784;SDS011;57944;48.722;9.316;2023-02-28T14:16:16;13.40;;;9.17;;
2784;SDS011;57944;48.722;9.316;2023-02-28T14:18:51;19.57;;;9.17;;
2784;SDS011;57944;48.722;9.316;2023-02-28T14:21:31;11.70;;;8.17;;
2784;SDS011;57944;48.722;9.316;2023-02-28T14:27:32;17.23;;;8.17;;
2784;SDS011;57944;48.722;9.316;2023-02-28T14:30:24;16.33;;;9.00;;
2784;SDS011;57944;48.722;9.316;2023-02-28T14:33:15;12.20;;;9.00;;
2784;SDS011;57944;48.722;9.316;2023-02-28T14:38:55;13.63;;;8.43;;
2784;SDS011;57944;48.722;9.316;2023-02-28T14:41:29;11.67;;;7.03;;
2784;SDS011;57944;48.722;9.316;2023-02-28T14:44:13;10.63;;;7.40;;
2784;SDS011;57944;48.722;9.316;2023-02-28T14:46:48;15.53;;;9.13;;
2784;SDS011;57944;48.722;9.316;2023-02-28T14:49:23;11.53;;;7.33;;
2784;SDS011;57944;48.722;9.316;2023-02-28T14:52:01;18.37;;;7.77;;
2784;SDS011;57944;48.722;9.316;2023-02-28T14:54:39;11.50;;;7.03;;
2784;SDS011;57944;48.722;9.316;2023-02-28T14:57:20;13.77;;;8.23;;
2784;SDS011;57944;48.722;9.316;2023-02-28T14:59:59;11.57;;;7.23;;
2784;SDS011;57944;48.722;9.316;2023-02-28T15:02:38;12.67;;;8.50;;
2784;SDS011;57944;48.722;9.316;2023-02-28T15:05:21;13.93;;;9.20;;
2784;SDS011;57944;48.722;9.316;2023-02-28T15:08:06;13.37;;;7.23;;
2784;SDS011;57944;48.722;9.316;2023-02-28T15:10:49;14.23;;;8.23;;
2784;SDS011;57944;48.722;9.316;2023-02-28T15:13:23;13.93;;;8.67;;
2784;SDS011;57944;48.722;9.316;2023-02-28T15:16:04;10.87;;;8.23;;
2784;SDS011;57944;48.722;9.316;2023-02-28T15:18:44;15.27;;;9.27;;
2784;SDS011;57944;48.722;9.316;2023-02-28T15:21:20;15.43;;;8.33;;
2784;SDS011;57944;48.722;9.316;2023-02-28T15:23:53;12.27;;;8.63;;
2784;SDS011;57944;48.722;9.316;2023-02-28T15:26:32;10.77;;;7.83;;
2784;SDS011;57944;48.722;9.316;2023-02-28T15:29:08;11.77;;;8.20;;
2784;SDS011;57944;48.722;9.316;2023-02-28T15:31:44;13.03;;;6.97;;
2784;SDS011;57944;48.722;9.316;2023-02-28T15:34:28;14.23;;;8.90;;
2784;SDS011;57944;48.722;9.316;2023-02-28T15:40:15;18.57;;;8.80;;
2784;SDS011;57944;48.722;9.316;2023-02-28T15:43:05;13.93;;;9.30;;
2784;SDS011;57944;48.722;9.316;2023-02-28T15:45:44;17.73;;;10.03;;
2784;SDS011;57944;48.722;9.316;2023-02-28T15:48:18;15.83;;;8.93;;
2784;SDS011;57944;48.722;9.316;2023-02-28T15:50:52;12.20;;;8.23;;
2784;SDS011;57944;48.722;9.316;2023-02-28T15:53:27;12.63;;;8.67;;
2784;SDS011;57944;48.722;9.316;2023-02-28T15:56:01;17.37;;;9.43;;
2784;SDS011;57944;48.722;9.316;2023-02-28T15:58:45;10.77;;;5.87;;
2784;SDS011;57944;48.722;9.316;2023-02-28T16:01:20;15.97;;;9.10;;
2784;SDS011;57944;48.722;9.316;2023-02-28T16:03:57;16.00;;;8.83;;
2784;SDS011;57944;48.722;9.316;2023-02-28T16:06:33;13.43;;;9.10;;
2784;SDS011;57944;48.722;9.316;2023-02-28T16:09:09;11.20;;;8.17;;
2784;SDS011;57944;48.722;9.316;2023-02-28T16:11:43;15.40;;;8.77;;
2784;SDS011;57944;48.722;9.316;2023-02-28T16:14:20;11.63;;;7.87;;
2784;SDS011;57944;48.722;9.316;2023-02-28T16:16:54;17.30;;;9.73;;
2784;SDS011;57944;48.722;9.316;2023-02-28T16:19:31;16.60;;;9.30;;